Time;durP1;ratioP1;P1;durP2;ratioP2;P2;SDS_P1;SDS_P2;PMS_P1;PMS_P2;Temp;Humidity;BMP_temperature;BMP_pressure;BME280_temperature;BME280_humidity;BME280_pressure;Samples;Min_cycle;Max_cycle;Signal;HPM_P1;HPM_P2
2022/09/23 06:01:47;;;;;;;;;7.25;6.75;;;;;19.75;49.94;101370.88;5060189;27;45484;-71
2022/09/23 06:04:13;;;;;;;;;7.75;5.50;;;;;19.92;50.45;101376.66;5058519;28;45505;-72
2022/09/23 06:06:40;;;;;;;;;4.25;4.25;;;;;20.18;50.93;101373.66;5052939;28;45508;-69
2022/09/23 06:09:10;;;;;;;;;8.00;6.00;;;;;20.48;50.18;101366.59;5053380;28;45503;-72
2022/09/23 06:11:36;;;;;;;;;8.00;7.00;;;;;20.84;50.06;101383.25;5047770;28;46067;-72
2022/09/23 06:14:01;;;;;;;;;8.00;6.33;;;;;21.21;49.37;101379.16;5040868;28;45475;-72
2022/09/23 06:16:32;;;;;;;;;9.25;7.50;;;;;21.55;49.17;101375.25;5052176;28;45474;-72
2022/09/23 06:19:03;;;;;;;;;8.00;7.25;;;;;21.89;48.13;101369.47;5057399;28;45514;-73
2022/09/23 06:21:29;;;;;;;;;10.33;7.33;;;;;22.24;48.02;101376.13;5053191;27;47208;-73
2022/09/23 06:23:56;;;;;;;;;8.00;8.00;;;;;22.54;47.22;101376.13;5042872;28;45421;-73
2022/09/23 06:26:22;;;;;;;;;8.33;7.67;;;;;22.77;46.73;101363.06;5056041;28;45356;-73
2022/09/23 06:28:47;;;;;;;;;10.00;8.00;;;;;23.06;45.84;101374.78;5056456;28;51497;-73
2022/09/23 06:31:14;;;;;;;;;10.00;10.00;;;;;23.28;45.35;101381.66;5055503;28;59434;-73
2022/09/23 06:33:42;;;;;;;;;9.33;9.00;;;;;23.50;44.94;101389.53;5058396;28;45530;-72
2022/09/23 06:36:07;;;;;;;;;7.00;7.00;;;;;23.69;44.29;101392.09;5051161;28;45383;-72
2022/09/23 06:38:33;;;;;;;;;6.00;6.00;;;;;23.87;43.80;101380.38;5057149;28;45795;-73
2022/09/23 06:41:00;;;;;;;;;8.67;7.67;;;;;24.00;43.17;101376.44;5055833;28;46079;-73
2022/09/23 06:43:26;;;;;;;;;6.33;6.33;;;;;24.13;43.16;101382.34;5057537;28;45446;-73
2022/09/23 06:45:53;;;;;;;;;9.00;9.00;;;;;24.16;43.18;101368.47;5057202;28;45380;-69
2022/09/23 06:48:20;;;;;;;;;8.00;8.00;;;;;24.35;42.87;101369.28;5055685;27;45404;-71
2022/09/23 06:50:48;;;;;;;;;8.00;7.00;;;;;24.31;42.81;101341.63;5049731;27;45562;-71
2022/09/23 06:53:14;;;;;;;;;10.33;7.33;;;;;24.37;42.36;101339.28;5055685;28;45415;-70
2022/09/23 06:55:40;;;;;;;;;6.00;5.33;;;;;24.45;42.22;101348.31;5059686;27;45637;-71
2022/09/23 06:58:06;;;;;;;;;6.67;6.67;;;;;24.48;41.97;101333.56;5056643;28;45279;-72
2022/09/23 07:00:32;;;;;;;;;10.00;8.00;;;;;24.53;41.92;101327.69;5057115;28;46243;-71
2022/09/23 07:02:57;;;;;;;;;7.67;7.67;;;;;24.88;41.59;101376.59;5050283;28;45663;-72
2022/09/23 07:05:23;;;;;;;;;8.33;7.00;;;;;24.68;41.40;101330.66;5051854;28;45341;-71
2022/09/23 07:07:48;;;;;;;;;9.00;6.00;;;;;25.00;41.50;101376.13;5051646;28;45370;-70
2022/09/23 07:10:14;;;;;;;;;8.67;7.33;;;;;25.06;41.25;101377.31;5056362;28;45395;-72
2022/09/23 07:12:40;;;;;;;;;7.00;7.00;;;;;25.11;41.01;101372.28;5043660;28;45542;-72
2022/09/23 07:15:07;;;;;;;;;7.33;6.67;;;;;25.17;41.02;101375.34;5036398;28;45560;-72
2022/09/23 07:17:33;;;;;;;;;7.67;7.67;;;;;25.21;40.52;101366.69;5040868;28;45340;-72
2022/09/23 07:19:59;;;;;;;;;8.00;7.67;;;;;25.23;40.72;101375.53;5037162;28;46691;-72
2022/09/23 07:22:25;;;;;;;;;8.00;8.00;;;;;25.25;40.82;101378.94;5037017;28;45403;-72
2022/09/23 07:24:54;;;;;;;;;8.00;7.00;;;;;25.29;40.46;101376.72;5035915;28;45341;-72
2022/09/23 07:27:21;;;;;;;;;6.00;6.00;;;;;25.32;40.35;101353.81;5033255;28;45584;-71
2022/09/23 07:29:48;;;;;;;;;7.67;7.67;;;;;25.30;40.74;101353.13;5037423;28;46507;-72
2022/09/23 07:32:13;;;;;;;;;7.00;7.00;;;;;25.34;40.28;101363.50;5036054;28;45663;-72
2022/09/23 07:34:38;;;;;;;;;8.33;8.00;;;;;25.36;40.23;101371.47;5034169;28;45423;-71
2022/09/23 07:37:04;;;;;;;;;9.00;9.00;;;;;25.36;40.02;101371.47;5058039;28;47975;-71
2022/09/23 07:39:29;;;;;;;;;8.33;8.33;;;;;25.38;40.24;101370.31;5035799;28;46120;-71
2022/09/23 07:41:54;;;;;;;;;8.33;7.67;;;;;25.42;39.84;101372.69;5036095;28;45346;-69
2022/09/23 07:44:20;;;;;;;;;8.67;7.67;;;;;25.39;40.00;101363.00;5036444;28;45421;-69
2022/09/23 07:46:47;;;;;;;;;7.33;6.00;;;;;25.45;40.03;101381.34;5036145;28;45422;-70
2022/09/23 07:49:12;;;;;;;;;8.00;6.33;;;;;25.46;39.96;101393.09;5036247;28;46380;-69
2022/09/23 07:51:39;;;;;;;;;9.67;8.00;;;;;25.45;39.88;101380.50;5036068;28;45505;-71
2022/09/23 07:54:07;;;;;;;;;8.33;7.00;;;;;25.44;39.80;101393.25;5036075;28;45459;-72
2022/09/23 07:56:34;;;;;;;;;8.33;8.33;;;;;25.44;39.96;101386.94;5035138;28;45440;-70
2022/09/23 07:59:00;;;;;;;;;7.00;7.00;;;;;25.48;39.86;101393.75;5036340;28;46980;-72
2022/09/23 08:01:37;;;;;;;;;9.33;8.00;;;;;25.47;39.53;101395.63;5034352;28;45600;-73
2022/09/23 08:04:26;;;;;;;;;4.67;4.67;;;;;25.50;39.70;101406.16;5033926;28;45404;-72
2022/09/23 08:06:54;;;;;;;;;5.67;5.00;;;;;25.50;39.58;101398.00;5035313;28;45423;-73
2022/09/23 08:09:22;;;;;;;;;5.00;5.00;;;;;25.49;40.07;101390.88;5036030;28;45230;-73
2022/09/23 08:11:49;;;;;;;;;6.00;6.00;;;;;25.52;39.92;101403.28;5034410;28;45783;-73
2022/09/23 08:14:16;;;;;;;;;6.33;6.33;;;;;25.53;39.62;101399.53;5036845;28;45583;-73
2022/09/23 08:16:44;;;;;;;;;8.00;8.00;;;;;25.56;39.56;101401.13;5034099;28;45515;-73
2022/09/23 08:19:09;;;;;;;;;6.00;6.00;;;;;25.56;39.37;101404.69;5034567;28;47071;-72
2022/09/23 08:21:38;;;;;;;;;6.00;6.00;;;;;25.58;39.32;101401.81;5034007;28;48617;-72
2022/09/23 08:24:14;;;;;;;;;8.00;8.00;;;;;25.55;39.05;101389.41;5034493;28;45316;-72
2022/09/23 08:26:40;;;;;;;;;6.00;6.00;;;;;25.58;39.43;101397.22;5025766;28;45535;-72
2022/09/23 08:29:08;;;;;;;;;10.33;8.67;;;;;25.57;39.45;101394.66;5034150;28;46086;-72
2022/09/23 08:31:34;;;;;;;;;8.67;7.00;;;;;25.50;39.25;101380.88;5042970;28;45397;-72
2022/09/23 08:33:59;;;;;;;;;7.00;7.00;;;;;25.58;39.26;101393.66;5034059;28;45443;-72
2022/09/23 08:36:24;;;;;;;;;9.33;7.00;;;;;25.59;38.71;101403.50;5035024;28;54770;-72
2022/09/23 08:38:50;;;;;;;;;7.33;6.67;;;;;25.61;38.81;101399.59;5033915;28;46549;-72
2022/09/23 08:41:37;;;;;;;;;5.33;5.33;;;;;25.62;38.78;101395.00;5035618;28;45370;-72
2022/09/23 08:44:12;;;;;;;;;7.67;7.67;;;;;25.63;39.00;101385.84;5034482;28;45392;-72
2022/09/23 08:46:48;;;;;;;;;7.33;5.67;;;;;25.64;39.20;101393.84;5034031;28;45755;-70
2022/09/23 08:49:22;;;;;;;;;9.00;7.00;;;;;25.67;38.87;101399.94;5035294;28;46304;-71
2022/09/23 08:51:50;;;;;;;;;9.67;6.67;;;;;25.68;38.92;101394.34;5035173;28;45372;-71
2022/09/23 08:54:17;;;;;;;;;7.67;6.00;;;;;25.70;38.48;101392.31;5029814;28;45473;-71
2022/09/23 08:56:45;;;;;;;;;5.00;5.00;;;;;25.71;38.60;101390.44;5032811;28;45772;-71
2022/09/23 08:59:18;;;;;;;;;7.00;6.00;;;;;25.71;38.98;101394.00;5033857;28;46356;-71
2022/09/23 09:01:47;;;;;;;;;8.33;6.67;;;;;25.68;38.61;101383.47;5033214;28;45361;-73
2022/09/23 09:04:21;;;;;;;;;6.67;6.33;;;;;25.70;38.32;101384.16;5033663;28;45482;-73
2022/09/23 09:07:01;;;;;;;;;8.00;7.00;;;;;25.74;38.29;101393.69;5047940;28;45396;-72
2022/09/23 09:09:36;;;;;;;;;8.67;7.00;;;;;25.73;38.68;101391.97;5044296;28;46251;-72
2022/09/23 09:12:12;;;;;;;;;7.00;7.00;;;;;25.75;38.42;101399.97;5037868;28;45502;-73
2022/09/23 09:15:03;;;;;;;;;7.00;6.00;;;;;25.77;38.31;101395.22;5029033;28;45460;-72
2022/09/23 09:17:47;;;;;;;;;7.33;7.00;;;;;25.76;38.63;101397.06;5028282;28;45489;-72
2022/09/23 09:20:12;;;;;;;;;6.33;6.00;;;;;25.78;38.13;101395.03;5034180;28;46929;-72
2022/09/23 09:22:47;;;;;;;;;5.00;5.00;;;;;25.78;38.22;101397.75;5033360;28;45384;-72
2022/09/23 09:25:35;;;;;;;;;3.67;3.67;;;;;25.80;38.51;101392.16;5034623;28;45537;-72
2022/09/23 09:28:07;;;;;;;;;6.00;6.00;;;;;25.80;38.12;101389.44;5032929;28;45523;-72
2022/09/23 09:30:34;;;;;;;;;6.33;6.33;;;;;25.79;38.42;101391.31;5033942;28;46088;-73
2022/09/23 09:33:02;;;;;;;;;7.00;6.00;;;;;25.78;38.51;101386.88;5031196;28;45340;-72
2022/09/23 09:35:37;;;;;;;;;6.33;5.33;;;;;25.81;38.19;101391.13;5050562;28;45710;-72
2022/09/23 09:38:04;;;;;;;;;6.00;6.00;;;;;25.79;37.92;101391.31;5034087;28;45483;-72
2022/09/23 09:40:30;;;;;;;;;7.00;7.00;;;;;25.81;37.99;101393.84;5033285;28;46364;-72
2022/09/23 09:42:56;;;;;;;;;7.00;7.00;;;;;25.81;38.47;101385.69;5028443;28;45447;-72
2022/09/23 09:45:54;;;;;;;;;5.00;5.00;;;;;25.81;38.25;101377.53;5032393;28;45429;-72
2022/09/23 09:48:48;;;;;;;;;5.33;5.33;;;;;25.82;38.41;101379.22;5032464;28;45624;-72
2022/09/23 09:51:24;;;;;;;;;6.00;6.00;;;;;25.81;37.91;101377.53;5030483;28;45558;-70
2022/09/23 09:53:53;;;;;;;;;7.00;7.00;;;;;25.84;38.35;101382.66;5035306;28;45638;-70
2022/09/23 09:56:30;;;;;;;;;5.00;4.67;;;;;25.84;37.96;101377.22;5032707;28;45545;-70
2022/09/23 09:59:21;;;;;;;;;8.33;8.33;;;;;25.86;37.58;101368.88;5036025;28;45478;-72
2022/09/23 10:01:47;;;;;;;;;8.33;8.33;;;;;25.87;37.61;101371.41;5033156;28;47005;-72
2022/09/23 10:04:22;;;;;;;;;7.67;7.33;;;;;25.89;37.60;101369.41;5037866;28;45396;-72
2022/09/23 10:07:13;;;;;;;;;10.00;10.00;;;;;25.89;37.81;101374.84;5034420;28;45316;-72
2022/09/23 10:09:46;;;;;;;;;11.67;8.67;;;;;25.95;37.48;101367.84;5038735;28;45708;-73
2022/09/23 10:12:17;;;;;;;;;7.67;7.67;;;;;25.98;37.62;101370.25;5025626;28;45552;-73
2022/09/23 10:14:42;;;;;;;;;9.00;8.33;;;;;26.02;37.31;101373.47;5028147;28;45466;-73
2022/09/23 10:17:16;;;;;;;;;8.67;8.67;;;;;26.04;37.48;101372.28;5032326;28;45376;-73
2022/09/23 10:19:48;;;;;;;;;9.00;9.00;;;;;26.07;37.00;101368.34;5034243;28;45460;-73
2022/09/23 10:22:25;;;;;;;;;7.67;7.33;;;;;26.08;36.93;101366.50;5041696;28;46341;-74
2022/09/23 10:24:53;;;;;;;;;7.33;7.33;;;;;26.08;37.24;101369.22;5032293;28;45534;-73
2022/09/23 10:27:45;;;;;;;;;7.67;7.67;;;;;26.08;36.60;101359.19;5033064;28;45488;-72
2022/09/23 10:30:14;;;;;;;;;8.00;8.00;;;;;26.09;36.99;101357.31;5032681;28;45543;-73
2022/09/23 10:32:43;;;;;;;;;9.00;9.00;;;;;26.10;36.87;101350.84;5032953;28;45609;-73
2022/09/23 10:35:10;;;;;;;;;8.67;8.67;;;;;26.09;36.87;101349.16;5033913;28;45554;-72
2022/09/23 10:37:37;;;;;;;;;11.00;9.67;;;;;26.10;36.79;101340.81;5031656;28;45478;-71
2022/09/23 10:46:40;;;;;;;;;10.67;9.67;;;;;26.03;36.77;101335.22;5023545;28;45391;-71
2022/09/23 10:49:39;;;;;;;;;8.67;8.33;;;;;26.02;36.36;101329.94;5030476;28;45533;-71
2022/09/23 10:52:21;;;;;;;;;8.00;8.00;;;;;26.01;36.46;101328.25;5034725;28;45670;-72
2022/09/23 10:55:04;;;;;;;;;5.00;5.00;;;;;26.01;36.69;101322.81;5029420;28;46322;-71
2022/09/23 10:57:44;;;;;;;;;9.33;9.33;;;;;26.01;36.58;101314.66;5037452;28;45400;-71
2022/09/23 11:00:21;;;;;;;;;7.67;7.00;;;;;26.02;36.83;101319.06;5036441;28;45702;-70
2022/09/23 11:03:01;;;;;;;;;11.33;9.00;;;;;26.04;36.25;101325.19;5027516;28;45498;-72
2022/09/23 11:05:35;;;;;;;;;11.00;11.00;;;;;26.05;36.34;101326.88;5029713;28;45439;-71
2022/09/23 11:08:09;;;;;;;;;10.67;9.00;;;;;26.07;36.09;101324.84;5035610;28;45415;-71
2022/09/23 11:10:57;;;;;;;;;8.00;8.00;;;;;26.05;36.19;101311.44;5040494;28;45561;-73
2022/09/23 11:13:51;;;;;;;;;10.00;8.67;;;;;26.08;36.16;101312.09;5031061;28;45526;-72
2022/09/23 11:16:54;;;;;;;;;11.00;11.00;;;;;26.08;35.89;101312.97;5036592;28;45548;-72
2022/09/23 11:19:49;;;;;;;;;6.67;5.33;;;;;26.07;36.30;101304.97;5025452;28;45613;-71
2022/09/23 11:22:51;;;;;;;;;9.00;9.00;;;;;26.08;35.89;101302.06;5028669;28;45467;-71
2022/09/23 11:25:17;;;;;;;;;9.00;8.33;;;;;26.10;36.13;101301.88;5035076;28;45992;-71
2022/09/23 11:28:16;;;;;;;;;7.33;7.33;;;;;26.11;36.21;101292.72;5035215;28;45917;-71
2022/09/23 11:30:50;;;;;;;;;8.00;8.00;;;;;26.12;35.17;101297.97;5035646;28;45493;-72
2022/09/23 11:33:34;;;;;;;;;7.67;7.67;;;;;26.14;35.45;101290.50;5036484;28;45457;-71
2022/09/23 11:36:38;;;;;;;;;3.33;3.33;;;;;26.15;35.23;101296.75;5023960;28;45411;-72
2022/09/23 11:39:17;;;;;;;;;7.33;7.33;;;;;26.16;35.35;101288.44;5032452;28;45660;-72
2022/09/23 11:41:43;;;;;;;;;6.00;5.33;;;;;26.16;35.30;101296.59;5032703;28;46380;-72
2022/09/23 11:44:19;;;;;;;;;8.67;7.00;;;;;26.17;35.09;101294.75;5033972;28;45454;-72
2022/09/23 11:46:52;;;;;;;;;6.67;6.00;;;;;26.17;35.11;101295.56;5031427;28;45518;-71
2022/09/23 11:49:51;;;;;;;;;9.33;7.00;;;;;26.15;35.17;101294.91;5034379;28;46289;-71
2022/09/23 11:53:52;;;;;;;;;8.67;8.67;;;;;26.17;35.67;101300.19;5081265;27;45512;-68
2022/09/23 11:56:42;;;;;;;;;9.00;7.33;;;;;26.19;35.31;101298.13;5056849;28;45359;-68
2022/09/23 11:59:20;;;;;;;;;6.33;6.33;;;;;26.18;35.62;101296.44;5063089;28;45530;-68
2022/09/23 12:01:51;;;;;;;;;6.33;6.33;;;;;26.20;35.37;101290.81;5062383;28;45690;-68
2022/09/23 12:04:41;;;;;;;;;9.33;6.67;;;;;26.19;35.73;101281.81;5062918;28;46534;-71
2022/09/23 12:07:07;;;;;;;;;7.67;6.00;;;;;26.20;35.75;101294.41;5056417;28;46040;-71
2022/09/23 12:09:43;;;;;;;;;9.33;6.67;;;;;26.22;36.17;101288.75;5070541;28;45582;-71
2022/09/23 12:12:46;;;;;;;;;10.00;6.00;;;;;26.26;36.01;101296.47;5059775;27;45394;-71
2022/09/23 12:16:01;;;;;;;;;9.00;7.33;;;;;26.34;35.25;101292.00;5070166;27;46478;-71
2022/09/23 12:18:31;;;;;;;;;8.00;7.00;;;;;26.39;35.19;101284.16;5067092;28;45300;-72
2022/09/23 12:21:12;;;;;;;;;6.33;6.00;;;;;26.43;35.39;101282.78;5066762;27;45395;-71
2022/09/23 12:23:56;;;;;;;;;7.00;7.00;;;;;26.46;35.36;101274.28;5067155;28;45476;-71
2022/09/23 12:26:24;;;;;;;;;7.00;6.33;;;;;26.48;35.23;101276.84;5060521;28;45621;-71
2022/09/23 12:28:54;;;;;;;;;9.67;8.00;;;;;26.48;35.14;101272.22;5070276;28;45452;-71
2022/09/23 12:31:29;;;;;;;;;6.00;5.00;;;;;26.48;34.74;101274.94;5069323;28;45317;-73
2022/09/23 12:33:57;;;;;;;;;6.67;5.00;;;;;26.47;35.29;101275.97;5071366;28;45396;-74
2022/09/23 12:36:33;;;;;;;;;8.00;7.00;;;;;26.49;35.23;101268.50;5070774;27;45979;-73
2022/09/23 12:39:13;;;;;;;;;7.00;5.67;;;;;26.51;35.40;101263.72;5061750;28;45291;-70
2022/09/23 12:41:49;;;;;;;;;5.00;5.00;;;;;26.52;35.02;101262.69;5067811;28;45531;-68
2022/09/23 12:44:26;;;;;;;;;7.00;5.33;;;;;26.53;35.18;101260.81;5062677;27;45537;-71
2022/09/23 12:47:13;;;;;;;;;5.67;5.67;;;;;26.53;35.13;101255.38;5064034;28;46200;-71
2022/09/23 12:49:41;;;;;;;;;5.00;5.00;;;;;26.52;34.46;101254.50;5058597;28;45355;-72
2022/09/23 12:52:09;;;;;;;;;7.33;5.67;;;;;26.51;34.63;101254.69;5062725;28;45501;-72
2022/09/23 12:54:34;;;;;;;;;7.00;6.33;;;;;26.48;35.11;101242.28;5068211;28;45330;-71
2022/09/23 12:57:01;;;;;;;;;9.67;8.67;;;;;26.48;35.27;101239.56;5064922;28;45341;-72
2022/09/23 12:59:54;;;;;;;;;6.00;6.00;;;;;26.48;34.94;101227.84;5069399;28;45426;-72
2022/09/23 13:02:28;;;;;;;;;7.00;5.67;;;;;26.48;35.15;101225.94;5062613;27;45394;-72
2022/09/23 13:08:22;;;;;;;;;5.00;5.00;;;;;26.48;34.67;101236.84;5052445;28;45695;-70
2022/09/23 13:10:53;;;;;;;;;5.67;5.33;;;;;26.44;34.61;101230.91;5057378;28;45392;-71
2022/09/23 13:13:41;;;;;;;;;5.00;5.00;;;;;26.47;34.69;101234.28;5049811;28;45470;-71
2022/09/23 13:16:11;;;;;;;;;5.33;5.33;;;;;26.46;34.77;101236.19;5055774;28;45315;-71
2022/09/23 13:18:58;;;;;;;;;5.33;4.67;;;;;26.46;34.88;101229.88;5042008;28;45987;-72
2022/09/23 13:21:41;;;;;;;;;3.67;3.33;;;;;26.44;35.26;101230.03;5051439;28;45422;-71
2022/09/23 13:24:21;;;;;;;;;4.00;4.00;;;;;26.41;35.07;101228.53;5044440;28;45399;-71
2022/09/23 13:27:01;;;;;;;;;5.33;4.00;;;;;26.31;34.73;101208.84;5050359;28;45401;-71
2022/09/23 13:29:39;;;;;;;;;6.67;5.33;;;;;26.39;35.25;101222.44;5056963;28;45383;-72
2022/09/23 13:32:13;;;;;;;;;7.67;6.00;;;;;26.37;35.34;101216.31;5055276;28;45461;-70
2022/09/23 13:34:43;;;;;;;;;5.00;5.00;;;;;26.37;34.57;101210.88;5050000;28;45390;-71
2022/09/23 13:37:37;;;;;;;;;5.33;5.33;;;;;26.37;34.94;101210.88;5056535;28;45315;-71
2022/09/23 13:40:08;;;;;;;;;6.33;5.33;;;;;26.36;35.22;101205.63;5049431;28;45663;-72
2022/09/23 13:42:38;;;;;;;;;5.00;5.00;;;;;26.35;34.92;101199.31;5053598;28;45520;-72
2022/09/23 13:45:04;;;;;;;;;6.50;5.00;;;;;26.37;34.59;101199.13;5050904;28;45502;-72
2022/09/23 13:47:31;;;;;;;;;4.00;4.00;;;;;26.36;34.66;101198.28;5055034;28;45447;-73
2022/09/23 13:49:57;;;;;;;;;4.00;4.00;;;;;26.35;34.72;101195.75;5047926;28;45681;-71
2022/09/23 13:52:28;;;;;;;;;5.00;4.33;;;;;26.37;34.88;101197.28;5060049;28;45400;-69
2022/09/23 13:54:54;;;;;;;;;6.00;6.00;;;;;26.38;34.65;101203.56;5033731;28;45458;-69
2022/09/23 13:57:32;;;;;;;;;7.67;6.67;;;;;26.36;34.25;101192.00;5041647;28;45790;-70
2022/09/23 14:00:19;;;;;;;;;5.33;4.00;;;;;26.38;34.60;101192.66;5039882;28;46976;-68
2022/09/23 14:02:48;;;;;;;;;5.00;5.00;;;;;26.35;34.24;101185.69;5035351;28;45741;-69
2022/09/23 14:05:25;;;;;;;;;3.00;3.00;;;;;26.42;34.86;101194.00;5040471;28;45531;-69
2022/09/23 14:07:52;;;;;;;;;4.67;4.00;;;;;26.42;34.88;101186.72;5039694;28;45664;-70
2022/09/23 14:10:21;;;;;;;;;6.00;6.00;;;;;26.44;34.69;101191.94;5043899;28;45474;-71
2022/09/23 14:12:49;;;;;;;;;5.00;4.33;;;;;26.46;34.47;101184.47;5045256;28;45323;-70
2022/09/23 14:15:18;;;;;;;;;4.33;4.33;;;;;26.47;34.41;101177.13;5048234;28;45392;-70
2022/09/23 14:17:46;;;;;;;;;5.00;5.00;;;;;26.49;34.99;101184.13;5049757;28;45498;-70
2022/09/23 14:20:14;;;;;;;;;5.00;5.00;;;;;26.50;34.81;101180.38;5055496;28;46048;-69
2022/09/23 14:22:40;;;;;;;;;5.00;5.00;;;;;26.52;34.94;101181.03;5053792;28;45451;-69
2022/09/23 14:25:13;;;;;;;;;5.00;5.00;;;;;26.54;34.91;101165.38;5049894;28;45557;-70
2022/09/23 14:27:40;;;;;;;;;5.00;5.00;;;;;26.58;35.00;101174.03;5039219;28;45433;-69
2022/09/23 14:30:14;;;;;;;;;9.00;4.00;;;;;26.60;34.92;101168.41;5050783;28;45499;-71
2022/09/23 14:32:39;;;;;;;;;5.33;5.33;;;;;26.61;34.91;101164.66;5051281;28;45378;-71
2022/09/23 14:35:18;;;;;;;;;7.00;5.67;;;;;26.61;34.88;101168.25;5056261;28;45465;-68
2022/09/23 14:40:37;;;;;;;;;6.00;5.33;;;;;26.59;35.27;101159.38;5041783;28;45825;-71
2022/09/23 14:43:21;;;;;;;;;5.00;4.67;;;;;26.60;35.16;101161.06;5052077;28;45477;-70
2022/09/23 14:45:58;;;;;;;;;8.67;6.00;;;;;26.63;35.66;101157.16;5053473;28;45426;-71
2022/09/23 14:48:31;;;;;;;;;7.00;7.00;;;;;26.64;35.67;101158.88;5054844;28;45377;-71
2022/09/23 14:50:58;;;;;;;;;6.00;5.00;;;;;26.65;35.78;101150.50;5042654;28;46573;-71
2022/09/23 14:53:44;;;;;;;;;5.00;5.00;;;;;26.68;35.90;101157.44;5055640;28;45349;-73
2022/09/23 14:56:16;;;;;;;;;6.33;5.67;;;;;26.69;35.22;101156.44;5047186;28;45546;-70
2022/09/23 14:58:58;;;;;;;;;7.00;5.00;;;;;26.66;35.02;101149.50;5039403;28;45411;-71
2022/09/23 15:01:30;;;;;;;;;6.67;5.67;;;;;26.69;34.74;101159.16;5034837;28;46088;-70
2022/09/23 15:03:57;;;;;;;;;6.00;6.00;;;;;26.64;34.94;101145.25;5044334;28;45440;-68
2022/09/23 15:06:24;;;;;;;;;7.00;6.33;;;;;26.66;34.50;101154.06;5045958;28;45503;-68
2022/09/23 15:08:54;;;;;;;;;7.33;6.00;;;;;26.62;34.66;101150.00;5042402;28;45502;-67
2022/09/23 15:11:24;;;;;;;;;5.67;5.67;;;;;26.61;34.49;101140.16;5045477;28;45456;-68
2022/09/23 15:13:51;;;;;;;;;4.33;4.33;;;;;26.63;34.75;101143.53;5034540;28;45975;-68
2022/09/23 15:16:25;;;;;;;;;6.33;6.00;;;;;26.53;34.73;101122.84;5041334;28;45471;-69
2022/09/23 15:18:57;;;;;;;;;4.00;4.00;;;;;26.50;35.02;101119.63;5039426;28;45403;-68
2022/09/23 15:21:28;;;;;;;;;6.00;6.00;;;;;26.57;34.40;101126.06;5042029;28;46455;-68
2022/09/23 15:23:55;;;;;;;;;9.33;7.33;;;;;26.57;34.47;101123.34;5043975;28;45386;-68
2022/09/23 15:26:45;;;;;;;;;4.33;4.33;;;;;26.57;34.75;101129.63;5038377;28;45475;-71
2022/09/23 15:29:10;;;;;;;;;8.00;5.00;;;;;26.56;34.93;101125.22;5039513;28;45708;-71
2022/09/23 15:31:36;;;;;;;;;6.67;5.00;;;;;26.54;35.14;101116.38;5043034;28;46059;-72
2022/09/23 15:34:04;;;;;;;;;6.67;6.67;;;;;26.55;34.71;101125.38;5039812;28;45881;-71
2022/09/23 15:36:30;;;;;;;;;5.33;5.33;;;;;26.50;34.54;101120.50;5039065;28;45469;-71
2022/09/23 15:39:00;;;;;;;;;6.33;4.67;;;;;26.50;35.01;101120.50;5041705;28;45456;-71
2022/09/23 15:41:26;;;;;;;;;5.00;5.00;;;;;26.39;34.87;101099.97;5037046;28;46265;-71
2022/09/23 15:43:51;;;;;;;;;6.67;4.67;;;;;26.45;35.12;101122.91;5039191;28;45502;-73
2022/09/23 15:46:20;;;;;;;;;5.00;5.00;;;;;26.43;34.69;101119.50;5046315;28;50059;-73
2022/09/23 15:48:59;;;;;;;;;5.00;5.00;;;;;26.39;34.45;101102.69;5038065;28;45495;-73
2022/09/23 15:51:26;;;;;;;;;8.00;6.00;;;;;26.38;34.73;101106.44;5043345;28;48520;-72
2022/09/23 15:53:53;;;;;;;;;6.67;6.00;;;;;26.34;34.93;101093.34;5044310;28;45514;-71
2022/09/23 15:56:19;;;;;;;;;5.00;5.00;;;;;26.34;33.85;101086.06;5045404;28;45658;-72
2022/09/23 15:58:45;;;;;;;;;6.33;5.33;;;;;26.33;33.44;101084.38;5038035;28;45356;-72
2022/09/23 16:01:18;;;;;;;;;5.00;5.00;;;;;26.34;34.37;101079.75;5033799;28;46207;-72
2022/09/23 16:03:43;;;;;;;;;6.00;5.00;;;;;26.35;35.02;101084.19;5036932;28;45649;-73
2022/09/23 16:06:10;;;;;;;;;6.00;6.00;;;;;26.36;34.76;101080.44;5039933;28;53968;-72
2022/09/23 16:08:36;;;;;;;;;5.67;5.67;;;;;26.35;34.85;101081.47;5044078;28;45661;-72
2022/09/23 16:11:02;;;;;;;;;5.33;5.00;;;;;26.34;35.07;101086.06;5040593;28;46970;-72
2022/09/23 16:13:27;;;;;;;;;6.00;6.00;;;;;26.36;34.60;101099.50;5039564;28;45324;-72
2022/09/23 16:15:52;;;;;;;;;4.00;4.00;;;;;26.34;34.25;101082.47;5054642;28;45548;-72
2022/09/23 16:18:17;;;;;;;;;3.33;3.33;;;;;26.35;35.17;101074.13;5050191;28;45496;-68
2022/09/23 16:20:44;;;;;;;;;4.67;3.67;;;;;26.26;34.47;101062.47;5034041;28;51288;-69
2022/09/23 16:23:34;;;;;;;;;5.33;5.33;;;;;26.34;34.65;101083.34;5053937;28;45457;-71
2022/09/23 16:26:03;;;;;;;;;5.33;4.67;;;;;26.32;35.38;101079.94;5052516;28;45506;-71
2022/09/23 16:28:28;;;;;;;;;6.00;6.00;;;;;26.31;35.02;101075.53;5054198;28;45264;-70
2022/09/23 16:30:54;;;;;;;;;7.67;6.00;;;;;26.34;35.23;101077.91;5054278;28;46803;-70
2022/09/23 16:33:19;;;;;;;;;8.00;5.67;;;;;26.30;35.10;101065.66;5053853;28;45328;-72
2022/09/23 16:35:44;;;;;;;;;8.00;6.67;;;;;26.34;34.82;101074.31;5054852;28;45457;-70
2022/09/23 16:38:10;;;;;;;;;7.00;5.33;;;;;26.31;34.86;101067.34;5051827;28;45454;-70
2022/09/23 16:40:35;;;;;;;;;5.00;4.67;;;;;26.30;35.41;101062.94;5056337;28;58620;-71
2022/09/23 16:43:04;;;;;;;;;6.00;6.00;;;;;26.34;35.41;101060.72;5057374;28;45387;-72
2022/09/23 16:45:30;;;;;;;;;8.67;7.33;;;;;26.34;35.54;101061.56;5058355;28;45399;-70
2022/09/23 16:47:55;;;;;;;;;9.67;5.67;;;;;26.34;35.18;101058.00;5057321;28;45190;-71
2022/09/23 16:50:22;;;;;;;;;6.67;5.33;;;;;26.35;35.59;101065.97;5057358;28;46033;-71
